Time;durP1;ratioP1;P1;durP2;ratioP2;P2;SDS_P1;SDS_P2;PMS_P1;PMS_P2;Temp;Humidity;BMP_temperature;BMP_pressure;BME280_temperature;BME280_humidity;BME280_pressure;Samples;Min_cycle;Max_cycle;Signal;HPM_P1;HPM_P2
2022/07/12 00:01:29;;;;;;;16.10;10.55;;;;;;;;;;6196934;28;20673;-79
2022/07/12 00:04:29;;;;;;;14.63;8.90;;;;;;;;;;6203534;28;20022;-79
2022/07/12 00:07:29;;;;;;;16.90;9.43;;;;;;;;;;6203479;28;20022;-79
2022/07/12 00:10:29;;;;;;;14.45;8.98;;;;;;;;;;6200626;28;20276;-79
2022/07/12 00:13:29;;;;;;;16.63;10.47;;;;;;;;;;6201796;28;20054;-79
2022/07/12 00:16:30;;;;;;;18.83;9.25;;;;;;;;;;6197030;28;20345;-79
2022/07/12 00:19:30;;;;;;;16.67;10.48;;;;;;;;;;6199485;28;20022;-79
2022/07/12 00:22:31;;;;;;;14.73;8.93;;;;;;;;;;6202952;28;20122;-78
2022/07/12 00:25:32;;;;;;;16.00;10.17;;;;;;;;;;6203452;28;20057;-78
2022/07/12 00:28:32;;;;;;;16.90;10.50;;;;;;;;;;6199727;28;20366;-78
2022/07/12 00:31:32;;;;;;;14.57;9.23;;;;;;;;;;6200766;28;20018;-78
2022/07/12 00:34:32;;;;;;;15.18;9.65;;;;;;;;;;6199957;28;20332;-78
2022/07/12 00:37:33;;;;;;;15.68;9.50;;;;;;;;;;6199396;28;20039;-78
2022/07/12 00:40:33;;;;;;;13.18;8.85;;;;;;;;;;6199387;28;20034;-79
2022/07/12 00:43:33;;;;;;;15.68;10.05;;;;;;;;;;6197944;28;20014;-78
2022/07/12 00:46:33;;;;;;;15.30;10.07;;;;;;;;;;6198494;28;20101;-78
2022/07/12 00:49:34;;;;;;;15.15;9.23;;;;;;;;;;6200703;28;20129;-79
2022/07/12 00:52:35;;;;;;;14.00;8.33;;;;;;;;;;6202485;28;20120;-78
2022/07/12 00:55:35;;;;;;;13.17;9.20;;;;;;;;;;6206189;28;20307;-79
2022/07/12 00:58:35;;;;;;;15.02;8.32;;;;;;;;;;6199138;28;20375;-78
2022/07/12 01:01:37;;;;;;;12.17;8.43;;;;;;;;;;6203828;28;20021;-78
2022/07/12 01:04:37;;;;;;;14.20;8.18;;;;;;;;;;6205594;28;20275;-78
2022/07/12 01:07:38;;;;;;;15.00;9.45;;;;;;;;;;6217603;28;20494;-78
2022/07/12 01:10:38;;;;;;;14.95;9.85;;;;;;;;;;6201017;28;20073;-78
2022/07/12 01:13:39;;;;;;;16.95;9.50;;;;;;;;;;6198881;28;20053;-78
2022/07/12 01:16:39;;;;;;;16.37;9.83;;;;;;;;;;6200323;28;20030;-78
2022/07/12 01:19:40;;;;;;;12.80;9.30;;;;;;;;;;6197645;28;20276;-78
2022/07/12 01:22:41;;;;;;;13.95;8.60;;;;;;;;;;6206620;28;20022;-78
2022/07/12 01:25:41;;;;;;;16.40;9.63;;;;;;;;;;6207951;28;20038;-78
2022/07/12 01:28:41;;;;;;;16.52;10.02;;;;;;;;;;6209735;28;20036;-78
2022/07/12 01:31:42;;;;;;;12.03;8.90;;;;;;;;;;6198591;28;20023;-78
2022/07/12 01:34:43;;;;;;;14.63;9.88;;;;;;;;;;6199396;28;20764;-78
2022/07/12 01:37:43;;;;;;;14.38;10.25;;;;;;;;;;6200199;28;20098;-78
2022/07/12 01:40:43;;;;;;;16.77;9.77;;;;;;;;;;6200287;28;20030;-78
2022/07/12 01:43:44;;;;;;;16.23;9.97;;;;;;;;;;6199018;28;20065;-78
2022/07/12 01:46:44;;;;;;;14.52;8.90;;;;;;;;;;6205616;28;20269;-78
2022/07/12 01:49:44;;;;;;;15.33;10.83;;;;;;;;;;6197470;28;20080;-78
2022/07/12 01:52:44;;;;;;;14.70;9.60;;;;;;;;;;6193319;28;20102;-78
2022/07/12 01:55:45;;;;;;;12.18;8.75;;;;;;;;;;6209184;28;20025;-78
2022/07/12 01:58:45;;;;;;;12.88;9.48;;;;;;;;;;6212246;28;20072;-78
2022/07/12 02:01:46;;;;;;;13.27;8.35;;;;;;;;;;6203235;28;20040;-78
2022/07/12 02:04:46;;;;;;;12.43;8.20;;;;;;;;;;6208959;28;20032;-78
2022/07/12 02:07:47;;;;;;;13.27;8.95;;;;;;;;;;6205763;28;20706;-78
2022/07/12 02:10:47;;;;;;;12.13;7.73;;;;;;;;;;6210901;28;20013;-78
2022/07/12 02:13:48;;;;;;;12.13;9.83;;;;;;;;;;6193019;28;20266;-78
2022/07/12 02:16:48;;;;;;;13.00;7.10;;;;;;;;;;6199772;28;20123;-78
2022/07/12 02:19:49;;;;;;;12.40;7.47;;;;;;;;;;6205328;28;20026;-78
2022/07/12 02:22:49;;;;;;;14.95;6.97;;;;;;;;;;6202995;28;20013;-77
2022/07/12 02:25:49;;;;;;;10.48;6.55;;;;;;;;;;6207060;28;20056;-77
2022/07/12 02:28:50;;;;;;;8.18;5.95;;;;;;;;;;6207981;28;20014;-78
2022/07/12 02:31:50;;;;;;;9.93;6.30;;;;;;;;;;6217187;28;20038;-78
2022/07/12 02:34:50;;;;;;;11.80;7.50;;;;;;;;;;6208811;28;20736;-78
2022/07/12 02:37:51;;;;;;;11.15;6.45;;;;;;;;;;6194475;28;20045;-78
2022/07/12 02:40:54;;;;;;;11.85;6.28;;;;;;;;;;6197318;28;20490;-78
2022/07/12 02:43:54;;;;;;;9.55;6.68;;;;;;;;;;6194715;28;20125;-77
2022/07/12 02:46:54;;;;;;;12.43;7.68;;;;;;;;;;6195446;28;20015;-78
2022/07/12 02:49:54;;;;;;;11.13;6.80;;;;;;;;;;6197522;28;20021;-77
2022/07/12 02:52:55;;;;;;;13.33;7.47;;;;;;;;;;6197571;28;20261;-77
2022/07/12 02:55:55;;;;;;;13.45;7.82;;;;;;;;;;6196168;28;20049;-77
2022/07/12 02:58:55;;;;;;;13.57;8.32;;;;;;;;;;6194106;28;20041;-77
2022/07/12 03:01:56;;;;;;;11.53;7.87;;;;;;;;;;6196146;28;20045;-76
2022/07/12 03:04:57;;;;;;;11.07;7.43;;;;;;;;;;6195009;28;20340;-77
2022/07/12 03:07:57;;;;;;;14.43;7.40;;;;;;;;;;6194050;28;20014;-77
2022/07/12 03:10:57;;;;;;;10.25;5.53;;;;;;;;;;6193348;28;20022;-75
2022/07/12 03:13:58;;;;;;;8.25;6.28;;;;;;;;;;6197558;28;20437;-76
2022/07/12 03:16:58;;;;;;;10.00;6.30;;;;;;;;;;6198497;28;20057;-76
2022/07/12 03:19:58;;;;;;;7.72;4.78;;;;;;;;;;6195150;28;20288;-76
2022/07/12 03:22:58;;;;;;;7.38;4.90;;;;;;;;;;6194643;28;20100;-77
2022/07/12 03:25:58;;;;;;;8.05;5.25;;;;;;;;;;6204226;28;20028;-77
2022/07/12 03:29:00;;;;;;;7.50;4.97;;;;;;;;;;6202684;28;20065;-77
2022/07/12 03:32:00;;;;;;;6.43;4.50;;;;;;;;;;6205899;28;20261;-77
2022/07/12 03:35:01;;;;;;;6.45;4.63;;;;;;;;;;6205540;28;20042;-77
2022/07/12 03:38:02;;;;;;;8.55;4.78;;;;;;;;;;6205280;28;20014;-78
2022/07/12 03:41:03;;;;;;;9.20;5.05;;;;;;;;;;6199829;28;20019;-77
2022/07/12 03:44:03;;;;;;;9.20;5.83;;;;;;;;;;6210306;28;20017;-77
2022/07/12 03:47:04;;;;;;;7.88;4.78;;;;;;;;;;6208036;28;20616;-77
2022/07/12 03:50:05;;;;;;;10.60;5.65;;;;;;;;;;6203711;28;20019;-78
2022/07/12 03:53:05;;;;;;;7.87;5.87;;;;;;;;;;6205174;28;20026;-78
2022/07/12 03:56:06;;;;;;;10.75;5.70;;;;;;;;;;6211073;28;20408;-78
2022/07/12 03:59:06;;;;;;;8.45;5.00;;;;;;;;;;6204998;28;20058;-77
2022/07/12 04:02:06;;;;;;;11.55;6.43;;;;;;;;;;6206179;28;20382;-77
2022/07/12 04:05:07;;;;;;;8.82;5.85;;;;;;;;;;6206692;28;20015;-78
2022/07/12 04:08:07;;;;;;;9.43;6.22;;;;;;;;;;6200879;28;20367;-77
2022/07/12 04:11:07;;;;;;;10.70;5.65;;;;;;;;;;6205974;28;20022;-77
2022/07/12 04:14:08;;;;;;;7.45;5.13;;;;;;;;;;6206531;28;20371;-77
2022/07/12 04:17:08;;;;;;;9.35;6.78;;;;;;;;;;6204405;28;20026;-77
2022/07/12 04:20:09;;;;;;;9.18;6.00;;;;;;;;;;6209457;28;20025;-79
2022/07/12 04:23:10;;;;;;;11.18;7.07;;;;;;;;;;6209157;28;20014;-78
2022/07/12 04:26:10;;;;;;;10.18;5.95;;;;;;;;;;6211985;28;20028;-78
2022/07/12 04:29:10;;;;;;;9.83;5.60;;;;;;;;;;6206413;28;20371;-78
2022/07/12 04:32:10;;;;;;;8.70;5.10;;;;;;;;;;6205550;28;20301;-77
2022/07/12 04:35:10;;;;;;;9.10;6.13;;;;;;;;;;6202184;28;20057;-78
2022/07/12 04:38:11;;;;;;;11.97;6.13;;;;;;;;;;6194645;28;20023;-78
2022/07/12 04:41:11;;;;;;;7.18;5.50;;;;;;;;;;6199734;28;20022;-77
2022/07/12 04:44:11;;;;;;;9.47;5.80;;;;;;;;;;6199690;28;20402;-78
2022/07/12 04:47:11;;;;;;;8.23;5.50;;;;;;;;;;6201570;28;20782;-78
2022/07/12 04:50:12;;;;;;;7.67;5.63;;;;;;;;;;6200969;28;20022;-78
2022/07/12 04:53:12;;;;;;;9.47;6.13;;;;;;;;;;6201898;28;20011;-78
2022/07/12 04:56:12;;;;;;;8.53;5.70;;;;;;;;;;6200933;28;20449;-78
2022/07/12 04:59:13;;;;;;;11.07;6.60;;;;;;;;;;6205226;28;20035;-77
2022/07/12 05:02:13;;;;;;;11.15;7.30;;;;;;;;;;6216523;28;20014;-77
2022/07/12 05:05:14;;;;;;;11.90;7.90;;;;;;;;;;6200831;28;20505;-77
2022/07/12 05:08:14;;;;;;;14.32;9.05;;;;;;;;;;6199937;28;20046;-77
2022/07/12 05:11:14;;;;;;;16.37;11.60;;;;;;;;;;6215827;28;20026;-77
2022/07/12 05:14:15;;;;;;;16.03;9.80;;;;;;;;;;6201798;28;20022;-77
2022/07/12 05:17:15;;;;;;;14.02;9.52;;;;;;;;;;6200884;28;20022;-77
2022/07/12 05:20:15;;;;;;;13.57;10.37;;;;;;;;;;6200805;28;20124;-76
2022/07/12 05:23:16;;;;;;;16.90;11.40;;;;;;;;;;6208431;28;20053;-76
2022/07/12 05:26:17;;;;;;;16.30;9.00;;;;;;;;;;6200642;28;20022;-76
2022/07/12 05:29:17;;;;;;;14.87;8.30;;;;;;;;;;6200448;28;20026;-76
2022/07/12 05:32:17;;;;;;;8.60;6.57;;;;;;;;;;6199410;28;20090;-76
2022/07/12 05:35:17;;;;;;;13.70;7.83;;;;;;;;;;6197482;28;20046;-76
2022/07/12 05:38:18;;;;;;;11.30;6.97;;;;;;;;;;6200018;28;20037;-76
2022/07/12 05:41:19;;;;;;;13.33;7.13;;;;;;;;;;6198165;28;20038;-76
2022/07/12 05:44:19;;;;;;;11.67;6.93;;;;;;;;;;6202372;28;20798;-76
2022/07/12 05:47:19;;;;;;;11.37;6.47;;;;;;;;;;6205948;28;20014;-75
2022/07/12 05:50:19;;;;;;;10.37;6.93;;;;;;;;;;6206558;28;20058;-76
2022/07/12 05:53:23;;;;;;;12.15;7.43;;;;;;;;;;6211645;28;20044;-76
2022/07/12 05:56:23;;;;;;;10.68;7.07;;;;;;;;;;6191875;28;20029;-76
2022/07/12 05:59:23;;;;;;;10.70;7.13;;;;;;;;;;6212726;28;20108;-76
2022/07/12 06:02:23;;;;;;;13.70;8.00;;;;;;;;;;6207464;28;20014;-75
2022/07/12 06:05:24;;;;;;;12.30;6.30;;;;;;;;;;6209325;28;20014;-75
2022/07/12 06:08:24;;;;;;;9.90;6.87;;;;;;;;;;6203662;28;20049;-75
2022/07/12 06:11:24;;;;;;;8.75;5.55;;;;;;;;;;6221486;28;20022;-75
2022/07/12 06:14:24;;;;;;;9.57;5.30;;;;;;;;;;6197581;28;20021;-76
2022/07/12 06:17:25;;;;;;;6.17;4.60;;;;;;;;;;6192264;28;20034;-76
2022/07/12 06:20:25;;;;;;;12.90;5.30;;;;;;;;;;6213941;28;20478;-75
2022/07/12 06:23:26;;;;;;;8.30;4.77;;;;;;;;;;6204385;28;20017;-75
2022/07/12 06:26:27;;;;;;;7.40;4.43;;;;;;;;;;6188913;28;20011;-76
2022/07/12 06:29:27;;;;;;;9.25;5.63;;;;;;;;;;6200719;28;20022;-75
2022/07/12 06:32:27;;;;;;;6.37;4.83;;;;;;;;;;6203623;28;20037;-75
2022/07/12 06:35:28;;;;;;;10.00;5.93;;;;;;;;;;6196069;28;20034;-76
2022/07/12 06:38:28;;;;;;;8.07;5.63;;;;;;;;;;6209244;28;20023;-76
2022/07/12 06:41:29;;;;;;;7.80;5.50;;;;;;;;;;6195175;28;20030;-76
2022/07/12 06:44:30;;;;;;;12.27;5.27;;;;;;;;;;6221581;28;20022;-76
2022/07/12 06:47:30;;;;;;;9.68;6.07;;;;;;;;;;6196774;28;20493;-76
2022/07/12 06:50:31;;;;;;;7.00;4.87;;;;;;;;;;6198513;28;20049;-76
2022/07/12 06:53:31;;;;;;;9.47;5.53;;;;;;;;;;6196661;28;20080;-77
2022/07/12 06:56:32;;;;;;;10.13;4.90;;;;;;;;;;6201194;28;20081;-77
2022/07/12 06:59:32;;;;;;;6.53;4.63;;;;;;;;;;6197630;28;20047;-77
2022/07/12 07:02:32;;;;;;;4.87;3.67;;;;;;;;;;6205854;28;20486;-77
2022/07/12 07:05:32;;;;;;;5.77;3.80;;;;;;;;;;6210185;28;20018;-77
2022/07/12 07:08:33;;;;;;;7.80;4.23;;;;;;;;;;6194040;28;20156;-78
2022/07/12 07:11:34;;;;;;;11.70;4.33;;;;;;;;;;6188728;28;20073;-78
2022/07/12 07:14:34;;;;;;;6.03;3.38;;;;;;;;;;6199111;28;20026;-77
2022/07/12 07:17:34;;;;;;;5.10;2.87;;;;;;;;;;6209653;28;20022;-77
2022/07/12 07:20:35;;;;;;;3.35;1.67;;;;;;;;;;6202832;28;20108;-78
2022/07/12 07:23:35;;;;;;;1.93;1.57;;;;;;;;;;6198962;28;20018;-78
2022/07/12 07:26:35;;;;;;;;;;;;;;;;;;6192046;28;20101;-77
2022/07/12 07:32:54;;;;;;;1.98;1.50;;;;;;;;;;6205934;28;20043;-77
2022/07/12 07:35:55;;;;;;;4.50;1.80;;;;;;;;;;6196785;28;20085;-78
2022/07/12 07:38:57;;;;;;;2.35;1.50;;;;;;;;;;6199141;28;20615;-77
2022/07/12 07:41:57;;;;;;;2.28;1.55;;;;;;;;;;6194601;28;20050;-77
2022/07/12 07:44:57;;;;;;;2.50;1.80;;;;;;;;;;6201070;28;20046;-77
2022/07/12 07:47:57;;;;;;;2.77;1.53;;;;;;;;;;6194767;28;20018;-77
2022/07/12 07:50:58;;;;;;;3.93;1.30;;;;;;;;;;6191869;28;20018;-77
2022/07/12 07:53:58;;;;;;;2.60;1.17;;;;;;;;;;6199080;28;20052;-76
2022/07/12 07:56:58;;;;;;;1.63;1.30;;;;;;;;;;6203800;28;20473;-76
2022/07/12 07:59:58;;;;;;;4.53;1.63;;;;;;;;;;6199315;28;20050;-77
2022/07/12 08:02:58;;;;;;;3.30;2.40;;;;;;;;;;6199924;28;20018;-76
2022/07/12 08:06:00;;;;;;;2.47;1.55;;;;;;;;;;6201927;28;20049;-76
2022/07/12 08:09:00;;;;;;;;;;;;;;;;;;6207301;28;20493;-77
2022/07/12 08:12:00;;;;;;;2.38;1.45;;;;;;;;;;6208393;28;20373;-76
2022/07/12 08:15:01;;;;;;;2.17;1.40;;;;;;;;;;6209175;28;20129;-76
2022/07/12 08:18:01;;;;;;;2.30;1.10;;;;;;;;;;6213895;28;20804;-76
2022/07/12 08:21:01;;;;;;;4.53;1.30;;;;;;;;;;6190151;28;20398;-76
2022/07/12 08:24:02;;;;;;;4.40;1.10;;;;;;;;;;6200738;28;20045;-76
2022/07/12 08:27:02;;;;;;;2.43;1.40;;;;;;;;;;6197659;28;20101;-77
2022/07/12 08:30:02;;;;;;;5.10;2.63;;;;;;;;;;6207365;28;20422;-77
2022/07/12 08:33:03;;;;;;;1.67;1.17;;;;;;;;;;6207089;28;20023;-77
2022/07/12 08:36:03;;;;;;;6.87;1.70;;;;;;;;;;6214698;28;21180;-77
2022/07/12 08:39:03;;;;;;;3.73;1.57;;;;;;;;;;6194010;28;20439;-77
2022/07/12 08:42:07;;;;;;;2.70;1.73;;;;;;;;;;6212154;28;20554;-76
2022/07/12 08:45:08;;;;;;;1.77;1.55;;;;;;;;;;6204706;28;20036;-76
2022/07/12 08:48:08;;;;;;;7.10;2.80;;;;;;;;;;6200063;28;20010;-75
2022/07/12 08:51:18;;;;;;;9.37;1.90;;;;;;;;;;6197498;28;20042;-75
2022/07/12 08:54:18;;;;;;;3.65;1.85;;;;;;;;;;6201586;28;20556;-75
2022/07/12 08:57:30;;;;;;;3.03;1.90;;;;;;;;;;6202812;28;20050;-75
2022/07/12 09:00:31;;;;;;;4.57;3.08;;;;;;;;;;6200309;28;20387;-75
2022/07/12 09:03:31;;;;;;;3.67;2.50;;;;;;;;;;6203981;28;20109;-75
2022/07/12 09:06:31;;;;;;;4.30;2.47;;;;;;;;;;6200156;28;20034;-76
2022/07/12 09:09:35;;;;;;;6.10;2.57;;;;;;;;;;6202262;28;20042;-75
2022/07/12 09:12:36;;;;;;;6.65;1.88;;;;;;;;;;6196207;28;20489;-76
2022/07/12 09:15:36;;;;;;;6.37;2.10;;;;;;;;;;6197938;28;20036;-76
2022/07/12 09:18:36;;;;;;;2.97;1.57;;;;;;;;;;6201219;28;20030;-75
2022/07/12 09:21:36;;;;;;;5.23;1.67;;;;;;;;;;6192563;28;20030;-75
2022/07/12 09:24:36;;;;;;;5.90;1.43;;;;;;;;;;6200168;28;20026;-76
2022/07/12 09:27:37;;;;;;;5.30;2.43;;;;;;;;;;6195274;28;20053;-75
2022/07/12 09:30:46;;;;;;;3.63;1.47;;;;;;;;;;6204745;28;20481;-75
2022/07/12 09:37:17;;;;;;;7.22;1.70;;;;;;;;;;6210383;28;20042;-74
2022/07/12 09:40:20;;;;;;;5.67;2.23;;;;;;;;;;6210529;28;20057;-74
2022/07/12 09:43:21;;;;;;;5.68;2.10;;;;;;;;;;6199944;28;20286;-73
2022/07/12 09:46:21;;;;;;;;;;;;;;;;;;6210239;28;20018;-74
2022/07/12 09:49:22;;;;;;;3.63;1.60;;;;;;;;;;6214502;28;19921;-75
2022/07/12 09:52:24;;;;;;;3.47;1.50;;;;;;;;;;6200035;28;20061;-74
2022/07/12 09:55:26;;;;;;;5.95;1.92;;;;;;;;;;6200163;28;20034;-74
2022/07/12 09:58:26;;;;;;;;;;;;;;;;;;6198707;28;20030;-74
2022/07/12 10:01:26;;;;;;;4.88;1.67;;;;;;;;;;6213176;28;19920;-74
2022/07/12 10:04:30;;;;;;;8.40;2.07;;;;;;;;;;6192667;28;20120;-74
2022/07/12 10:07:31;;;;;;;5.38;1.98;;;;;;;;;;6211707;28;20026;-73
2022/07/12 10:10:32;;;;;;;5.73;2.47;;;;;;;;;;6203194;28;20117;-74
2022/07/12 10:13:32;;;;;;;4.50;1.70;;;;;;;;;;6191199;28;20117;-74
2022/07/12 10:16:35;;;;;;;6.97;1.73;;;;;;;;;;6202987;28;20034;-74
2022/07/12 10:19:36;;;;;;;6.00;1.60;;;;;;;;;;6194629;28;20462;-73
2022/07/12 10:22:36;;;;;;;4.78;1.77;;;;;;;;;;6193810;28;20075;-74
2022/07/12 10:25:36;;;;;;;8.15;2.78;;;;;;;;;;6204293;28;20045;-74
2022/07/12 10:28:55;;;;;;;3.97;2.30;;;;;;;;;;6196681;28;20027;-73
2022/07/12 10:31:56;;;;;;;4.95;1.52;;;;;;;;;;6198411;28;20033;-73
2022/07/12 10:34:58;;;;;;;2.22;1.30;;;;;;;;;;6197344;28;20129;-73
2022/07/12 10:38:10;;;;;;;3.30;1.33;;;;;;;;;;6203335;28;20223;-74
2022/07/12 10:41:21;;;;;;;3.00;1.77;;;;;;;;;;6192140;28;20398;-73
2022/07/12 10:44:35;;;;;;;4.25;0.88;;;;;;;;;;6195321;28;20536;-73
2022/07/12 10:47:52;;;;;;;8.20;1.75;;;;;;;;;;6196429;28;20052;-74
2022/07/12 10:51:00;;;;;;;1.85;1.15;;;;;;;;;;6195426;28;20525;-74
2022/07/12 10:54:19;;;;;;;4.80;1.38;;;;;;;;;;6197843;28;20030;-74
2022/07/12 10:57:38;;;;;;;1.20;1.10;;;;;;;;;;6196930;28;20033;-73
2022/07/12 11:00:38;;;;;;;2.53;1.10;;;;;;;;;;6194553;28;20213;-74
2022/07/12 11:03:42;;;;;;;7.07;1.20;;;;;;;;;;6195787;28;20026;-73
2022/07/12 11:06:43;;;;;;;5.80;1.42;;;;;;;;;;6200367;28;20028;-73
2022/07/12 11:09:43;;;;;;;1.00;0.90;;;;;;;;;;6195603;28;20030;-74
2022/07/12 11:12:43;;;;;;;2.88;1.17;;;;;;;;;;6196357;28;20030;-74
2022/07/12 11:15:54;;;;;;;4.80;1.40;;;;;;;;;;6197046;28;20030;-74
2022/07/12 11:18:55;;;;;;;2.25;1.08;;;;;;;;;;6198747;28;20029;-74
2022/07/12 11:21:56;;;;;;;1.03;0.87;;;;;;;;;;6198205;28;20022;-74
2022/07/12 11:24:57;;;;;;;;;;;;;;;;;;6197531;28;20018;-74
2022/07/12 11:27:57;;;;;;;0.90;0.80;;;;;;;;;;6221649;28;20328;-73
2022/07/12 11:31:02;;;;;;;2.50;0.87;;;;;;;;;;6197194;28;20530;-73
2022/07/12 11:34:02;;;;;;;1.40;0.95;;;;;;;;;;6211599;28;20058;-73
2022/07/12 11:37:02;;;;;;;3.80;1.77;;;;;;;;;;6200942;28;20018;-73
2022/07/12 11:40:02;;;;;;;1.23;0.73;;;;;;;;;;6196601;28;20022;-73
2022/07/12 11:43:04;;;;;;;1.60;1.03;;;;;;;;;;6199119;28;20780;-74
2022/07/12 11:46:04;;;;;;;;;;;;;;;;;;6202895;28;20022;-75
2022/07/12 11:49:04;;;;;;;2.17;0.90;;;;;;;;;;6203338;28;19928;-74
2022/07/12 11:52:05;;;;;;;3.80;1.43;;;;;;;;;;6206348;28;20023;-76
2022/07/12 11:55:08;;;;;;;2.13;0.80;;;;;;;;;;6202815;28;20112;-74
2022/07/12 11:58:09;;;;;;;4.05;1.00;;;;;;;;;;6206377;28;20606;-74
2022/07/12 12:01:10;;;;;;;1.13;0.53;;;;;;;;;;6208998;28;20027;-74
2022/07/12 12:04:10;;;;;;;;;;;;;;;;;;6201779;28;20018;-74
2022/07/12 12:07:15;;;;;;;3.33;0.70;;;;;;;;;;6214834;28;19914;-73
2022/07/12 12:10:17;;;;;;;3.22;1.10;;;;;;;;;;6199298;28;20026;-73
2022/07/12 12:13:17;;;;;;;2.83;0.90;;;;;;;;;;6199170;28;20375;-73
2022/07/12 12:16:18;;;;;;;1.23;0.73;;;;;;;;;;6201010;28;20019;-73
2022/07/12 12:19:18;;;;;;;0.70;0.70;;;;;;;;;;6205329;28;20050;-74
2022/07/12 12:22:28;;;;;;;4.10;1.05;;;;;;;;;;6200465;28;20092;-73
2022/07/12 12:25:29;;;;;;;2.08;0.88;;;;;;;;;;6199613;28;20118;-73
2022/07/12 12:28:45;;;;;;;4.53;0.90;;;;;;;;;;6201526;28;20026;-73
2022/07/12 12:31:58;;;;;;;2.95;1.13;;;;;;;;;;6203786;28;20026;-73
2022/07/12 12:35:05;;;;;;;2.30;0.90;;;;;;;;;;6212789;28;20051;-74
2022/07/12 12:38:13;;;;;;;3.67;1.33;;;;;;;;;;6189435;28;20101;-73
2022/07/12 12:41:13;;;;;;;4.57;1.30;;;;;;;;;;6215204;28;20478;-75
2022/07/12 12:44:16;;;;;;;2.07;1.00;;;;;;;;;;6197909;28;20030;-74
2022/07/12 12:47:31;;;;;;;1.95;1.55;;;;;;;;;;6215300;28;20084;-75
2022/07/12 12:50:42;;;;;;;0.80;0.80;;;;;;;;;;6214006;28;20026;-74
2022/07/12 12:53:43;;;;;;;3.13;1.00;;;;;;;;;;6208712;28;20022;-75
2022/07/12 12:56:43;;;;;;;1.10;1.00;;;;;;;;;;6214535;28;20671;-74
2022/07/12 12:59:43;;;;;;;2.50;1.00;;;;;;;;;;6206909;28;20022;-74
2022/07/12 13:02:43;;;;;;;2.47;1.10;;;;;;;;;;6210556;28;20049;-75
2022/07/12 13:05:44;;;;;;;2.63;1.30;;;;;;;;;;6209164;28;20023;-75
2022/07/12 13:08:44;;;;;;;1.33;0.70;;;;;;;;;;6211639;28;20458;-75
2022/07/12 13:11:48;;;;;;;2.08;1.25;;;;;;;;;;6205976;28;20030;-75
2022/07/12 13:14:49;;;;;;;5.53;1.35;;;;;;;;;;6204662;28;20105;-75
2022/07/12 13:17:49;;;;;;;3.33;0.80;;;;;;;;;;6202408;28;20030;-74
2022/07/12 13:20:49;;;;;;;3.73;0.83;;;;;;;;;;6196809;28;20038;-75
2022/07/12 13:23:50;;;;;;;4.37;1.30;;;;;;;;;;6202640;28;20030;-74
2022/07/12 13:26:50;;;;;;;3.43;1.00;;;;;;;;;;6195897;28;20080;-74
2022/07/12 13:29:50;;;;;;;1.73;1.07;;;;;;;;;;6209062;28;20171;-75
2022/07/12 13:32:50;;;;;;;2.50;0.50;;;;;;;;;;6181046;28;20106;-74
2022/07/12 13:35:51;;;;;;;2.47;0.90;;;;;;;;;;6197826;28;20065;-75
2022/07/12 13:38:51;;;;;;;2.67;0.70;;;;;;;;;;6204470;28;20030;-75
2022/07/12 13:41:51;;;;;;;1.60;0.50;;;;;;;;;;6196623;28;20062;-74
2022/07/12 13:44:52;;;;;;;3.30;0.65;;;;;;;;;;6205392;28;20120;-75
2022/07/12 13:47:53;;;;;;;1.90;0.57;;;;;;;;;;6204152;28;20441;-74
2022/07/12 13:50:53;;;;;;;2.72;0.68;;;;;;;;;;6200780;28;20344;-75
2022/07/12 13:53:53;;;;;;;0.75;0.68;;;;;;;;;;6202317;28;20026;-74
2022/07/12 13:56:53;;;;;;;1.80;0.73;;;;;;;;;;6203018;28;20097;-75
2022/07/12 13:59:54;;;;;;;2.13;0.67;;;;;;;;;;6198290;28;20030;-75
2022/07/12 14:02:54;;;;;;;2.07;0.70;;;;;;;;;;6193240;28;20453;-75
2022/07/12 14:05:54;;;;;;;1.40;0.93;;;;;;;;;;6197814;28;20034;-74
2022/07/12 14:08:54;;;;;;;2.83;0.80;;;;;;;;;;6193230;28;20041;-74
2022/07/12 14:11:54;;;;;;;1.05;0.63;;;;;;;;;;6196525;28;20021;-74
2022/07/12 14:18:14;;;;;;;3.35;1.00;;;;;;;;;;6195408;28;20026;-74
2022/07/12 14:21:14;;;;;;;0.57;0.43;;;;;;;;;;6197808;28;20596;-74
2022/07/12 14:24:14;;;;;;;1.93;0.73;;;;;;;;;;6196497;28;20018;-74
2022/07/12 14:27:15;;;;;;;4.00;0.80;;;;;;;;;;6199194;28;20054;-73
2022/07/12 14:30:15;;;;;;;2.97;0.70;;;;;;;;;;6199628;28;20058;-76
2022/07/12 14:33:15;;;;;;;3.70;1.07;;;;;;;;;;6197259;28;20080;-73
2022/07/12 14:36:15;;;;;;;2.03;1.10;;;;;;;;;;6197598;28;20034;-73
2022/07/12 14:39:16;;;;;;;2.70;0.87;;;;;;;;;;6205077;28;20026;-73
2022/07/12 14:42:16;;;;;;;0.57;0.53;;;;;;;;;;6203914;28;20443;-73
2022/07/12 14:45:16;;;;;;;3.33;1.60;;;;;;;;;;6207578;28;20389;-73
2022/07/12 14:48:16;;;;;;;12.63;6.77;;;;;;;;;;6210590;28;20433;-74
2022/07/12 14:51:17;;;;;;;7.43;3.87;;;;;;;;;;6211931;28;20452;-74
2022/07/12 14:54:17;;;;;;;2.30;1.67;;;;;;;;;;6198455;28;20022;-72
2022/07/12 14:57:17;;;;;;;2.77;0.80;;;;;;;;;;6196173;28;20029;-73
2022/07/12 15:00:19;;;;;;;3.57;1.27;;;;;;;;;;6198770;28;20032;-73
2022/07/12 15:03:19;;;;;;;;;;;;;;;;;;6207214;28;20413;-73
2022/07/12 15:06:19;;;;;;;1.23;0.98;;;;;;;;;;6210752;28;20288;-74
2022/07/12 15:09:19;;;;;;;3.00;0.97;;;;;;;;;;6212352;28;20060;-73
2022/07/12 15:12:19;;;;;;;7.53;1.27;;;;;;;;;;6224740;28;20028;-73
2022/07/12 15:15:20;;;;;;;1.77;1.20;;;;;;;;;;6198453;28;20030;-73
2022/07/12 15:18:20;;;;;;;3.60;0.83;;;;;;;;;;6209150;28;20022;-73
2022/07/12 15:21:20;;;;;;;1.83;0.80;;;;;;;;;;6204704;28;20030;-74
2022/07/12 15:24:20;;;;;;;4.65;1.50;;;;;;;;;;6205449;28;20021;-74
2022/07/12 15:27:21;;;;;;;1.73;0.98;;;;;;;;;;6203842;28;20102;-74
2022/07/12 15:30:21;;;;;;;3.93;1.20;;;;;;;;;;6213063;28;20005;-74
2022/07/12 15:33:22;;;;;;;1.53;1.03;;;;;;;;;;6205819;28;20046;-74
2022/07/12 15:36:22;;;;;;;3.13;1.20;;;;;;;;;;6191461;28;20057;-75
2022/07/12 15:39:22;;;;;;;1.60;1.13;;;;;;;;;;6213519;28;20105;-75
2022/07/12 15:42:23;;;;;;;4.30;0.90;;;;;;;;;;6205472;28;20089;-75
2022/07/12 15:45:23;;;;;;;2.00;1.30;;;;;;;;;;6194415;28;20014;-75
2022/07/12 15:48:23;;;;;;;2.95;1.10;;;;;;;;;;6198851;28;20493;-75
2022/07/12 15:54:42;;;;;;;2.10;1.20;;;;;;;;;;6200247;28;20033;-74
2022/07/12 15:57:43;;;;;;;2.70;1.50;;;;;;;;;;6204266;28;20029;-75
2022/07/12 16:00:43;;;;;;;4.03;1.30;;;;;;;;;;6202698;28;20073;-74
2022/07/12 16:03:43;;;;;;;2.97;1.43;;;;;;;;;;6200696;28;20444;-75
2022/07/12 16:06:43;;;;;;;1.13;0.90;;;;;;;;;;6196181;28;20709;-74
2022/07/12 16:09:43;;;;;;;1.93;1.40;;;;;;;;;;6198840;28;20033;-74
2022/07/12 16:12:44;;;;;;;4.20;1.63;;;;;;;;;;6200549;28;20022;-75
2022/07/12 16:15:44;;;;;;;1.57;0.70;;;;;;;;;;6212239;28;20033;-75
2022/07/12 16:18:44;;;;;;;2.30;1.03;;;;;;;;;;6194840;28;20042;-75
2022/07/12 16:21:44;;;;;;;2.00;1.15;;;;;;;;;;6208521;28;20058;-75
2022/07/12 16:24:44;;;;;;;10.83;3.73;;;;;;;;;;6203448;28;20018;-75
2022/07/12 16:27:45;;;;;;;3.90;2.00;;;;;;;;;;6206460;28;20048;-75
2022/07/12 16:30:45;;;;;;;6.28;1.10;;;;;;;;;;6200122;28;20033;-75
2022/07/12 16:33:45;;;;;;;3.17;1.20;;;;;;;;;;6187726;28;20085;-75
2022/07/12 16:36:45;;;;;;;4.13;1.10;;;;;;;;;;6212954;28;20029;-75
2022/07/12 16:39:46;;;;;;;2.00;0.90;;;;;;;;;;6206882;28;20030;-74
2022/07/12 16:42:47;;;;;;;1.47;1.37;;;;;;;;;;6206687;28;20413;-75
2022/07/12 16:45:47;;;;;;;0.55;0.55;;;;;;;;;;6213528;28;20093;-75
2022/07/12 16:48:48;;;;;;;0.80;0.73;;;;;;;;;;6215410;28;20024;-75
2022/07/12 16:51:48;;;;;;;2.17;1.13;;;;;;;;;;6209380;28;20040;-75
2022/07/12 16:54:48;;;;;;;0.47;0.43;;;;;;;;;;6202168;28;20125;-75
2022/07/12 16:57:48;;;;;;;2.00;1.03;;;;;;;;;;6200010;28;20037;-75
2022/07/12 17:00:48;;;;;;;7.33;2.60;;;;;;;;;;6209223;28;20026;-75
2022/07/12 17:03:49;;;;;;;10.73;4.95;;;;;;;;;;6199227;28;20453;-75
2022/07/12 17:06:49;;;;;;;8.80;3.23;;;;;;;;;;6202001;28;20034;-75
2022/07/12 17:09:49;;;;;;;1.60;1.13;;;;;;;;;;6200095;28;20406;-75
2022/07/12 17:12:51;;;;;;;2.37;1.07;;;;;;;;;;6199835;28;20019;-75
2022/07/12 17:15:52;;;;;;;1.02;0.88;;;;;;;;;;6224414;28;20022;-75
2022/07/12 17:18:53;;;;;;;4.03;0.82;;;;;;;;;;6212946;28;20021;-75
2022/07/12 17:21:53;;;;;;;2.07;0.80;;;;;;;;;;6189302;28;20018;-75
2022/07/12 17:24:53;;;;;;;2.57;0.60;;;;;;;;;;6198801;28;20010;-75
2022/07/12 17:27:53;;;;;;;7.47;1.23;;;;;;;;;;6198820;28;20069;-75
2022/07/12 17:30:53;;;;;;;3.00;0.70;;;;;;;;;;6198514;28;20026;-75
2022/07/12 17:33:55;;;;;;;1.77;0.90;;;;;;;;;;6204475;28;20077;-75
2022/07/12 17:36:55;;;;;;;2.05;0.68;;;;;;;;;;6204653;28;20026;-75
2022/07/12 17:39:55;;;;;;;2.03;0.57;;;;;;;;;;6200765;28;20027;-75
2022/07/12 17:42:55;;;;;;;4.10;0.55;;;;;;;;;;6202982;28;20089;-75
2022/07/12 17:45:55;;;;;;;0.90;0.70;;;;;;;;;;6202457;28;20390;-75
2022/07/12 17:48:56;;;;;;;1.30;0.90;;;;;;;;;;6200370;28;20348;-75
2022/07/12 17:51:56;;;;;;;0.90;0.77;;;;;;;;;;6198128;28;20478;-75
2022/07/12 17:54:57;;;;;;;1.95;0.70;;;;;;;;;;6198103;28;20451;-75
2022/07/12 18:01:18;;;;;;;4.35;1.55;;;;;;;;;;6202364;28;20042;-75
2022/07/12 18:04:18;;;;;;;4.10;1.30;;;;;;;;;;6206239;28;20030;-74
2022/07/12 18:07:18;;;;;;;2.67;1.63;;;;;;;;;;6211837;28;20069;-74
2022/07/12 18:10:19;;;;;;;3.00;1.70;;;;;;;;;;6204595;28;20045;-74
2022/07/12 18:16:38;;;;;;;1.40;1.30;;;;;;;;;;6217625;28;20030;-74
2022/07/12 18:19:38;;;;;;;6.37;2.13;;;;;;;;;;6216381;28;20036;-75
2022/07/12 18:22:39;;;;;;;4.90;1.43;;;;;;;;;;6210242;28;20010;-75